sensor_id;sensor_type;location;lat;lon;timestamp;pressure;altitude;pressure_sealevel;temperature;humidity
55271;BME280;41132;47.162;9.470;2023-07-29T00:01:41;96300.97;;;17.45;100.00
55271;BME280;41132;47.162;9.470;2023-07-29T00:04:08;96302.59;;;17.52;100.00
55271;BME280;41132;47.162;9.470;2023-07-29T00:06:34;96289.13;;;17.47;100.00
55271;BME280;41132;47.162;9.470;2023-07-29T00:09:00;96297.09;;;17.61;100.00
55271;BME280;41132;47.162;9.470;2023-07-29T00:11:25;96291.59;;;17.62;100.00
55271;BME280;41132;47.162;9.470;2023-07-29T00:13:50;96288.09;;;17.62;100.00
55271;BME280;41132;47.162;9.470;2023-07-29T00:16:16;96293.19;;;17.57;100.00
55271;BME280;41132;47.162;9.470;2023-07-29T00:18:43;96260.34;;;17.38;100.00
55271;BME280;41132;47.162;9.470;2023-07-29T00:21:08;96287.88;;;17.50;100.00
55271;BME280;41132;47.162;9.470;2023-07-29T00:23:33;96294.25;;;17.62;100.00
55271;BME280;41132;47.162;9.470;2023-07-29T00:25:59;96270.94;;;17.58;100.00
55271;BME280;41132;47.162;9.470;2023-07-29T00:28:24;96295.03;;;17.63;100.00
55271;BME280;41132;47.162;9.470;2023-07-29T00:30:50;96266.28;;;17.46;100.00
55271;BME280;41132;47.162;9.470;2023-07-29T00:33:15;96282.59;;;17.63;100.00
55271;BME280;41132;47.162;9.470;2023-07-29T00:35:40;96278.50;;;17.61;100.00
55271;BME280;41132;47.162;9.470;2023-07-29T00:38:06;96277.47;;;17.62;100.00
55271;BME280;41132;47.162;9.470;2023-07-29T00:40:35;96270.75;;;17.59;100.00
55271;BME280;41132;47.162;9.470;2023-07-29T00:43:01;96264.44;;;17.53;100.00
55271;BME280;41132;47.162;9.470;2023-07-29T00:45:27;96264.22;;;17.62;100.00
55271;BME280;41132;47.162;9.470;2023-07-29T00:47:54;96253.59;;;17.62;100.00
55271;BME280;41132;47.162;9.470;2023-07-29T00:50:19;96252.78;;;17.61;100.00
55271;BME280;41132;47.162;9.470;2023-07-29T00:52:45;96259.75;;;17.62;100.00
55271;BME280;41132;47.162;9.470;2023-07-29T00:55:11;96246.47;;;17.62;100.00
55271;BME280;41132;47.162;9.470;2023-07-29T00:57:36;96244.81;;;17.61;100.00
55271;BME280;41132;47.162;9.470;2023-07-29T01:00:03;96252.59;;;17.63;100.00
55271;BME280;41132;47.162;9.470;2023-07-29T01:02:30;96253.59;;;17.68;100.00
55271;BME280;41132;47.162;9.470;2023-07-29T01:04:58;96266.47;;;17.78;100.00
55271;BME280;41132;47.162;9.470;2023-07-29T01:07:32;96253.78;;;17.73;100.00
55271;BME280;41132;47.162;9.470;2023-07-29T01:12:40;96258.28;;;17.86;100.00
55271;BME280;41132;47.162;9.470;2023-07-29T01:15:13;96245.22;;;17.85;100.00
55271;BME280;41132;47.162;9.470;2023-07-29T01:17:43;96242.78;;;17.83;100.00
55271;BME280;41132;47.162;9.470;2023-07-29T01:20:14;96246.03;;;17.92;100.00
55271;BME280;41132;47.162;9.470;2023-07-29T01:22:41;96231.13;;;17.84;100.00
55271;BME280;41132;47.162;9.470;2023-07-29T01:25:07;96237.06;;;17.86;100.00
55271;BME280;41132;47.162;9.470;2023-07-29T01:27:33;96228.47;;;17.78;100.00
55271;BME280;41132;47.162;9.470;2023-07-29T01:29:58;96241.72;;;17.78;100.00
55271;BME280;41132;47.162;9.470;2023-07-29T01:37:32;96249.94;;;17.83;100.00
55271;BME280;41132;47.162;9.470;2023-07-29T01:40:00;96251.94;;;17.81;100.00
55271;BME280;41132;47.162;9.470;2023-07-29T01:42:25;96224.19;;;17.77;100.00
55271;BME280;41132;47.162;9.470;2023-07-29T01:44:52;96232.97;;;17.84;100.00
55271;BME280;41132;47.162;9.470;2023-07-29T01:47:17;96216.22;;;17.77;100.00
55271;BME280;41132;47.162;9.470;2023-07-29T01:49:43;96217.25;;;17.82;100.00
55271;BME280;41132;47.162;9.470;2023-07-29T01:52:08;96239.69;;;17.73;100.00
55271;BME280;41132;47.162;9.470;2023-07-29T01:54:34;96221.75;;;17.68;100.00
55271;BME280;41132;47.162;9.470;2023-07-29T01:56:59;96223.78;;;17.66;100.00
55271;BME280;41132;47.162;9.470;2023-07-29T01:59:24;96228.91;;;17.68;100.00
55271;BME280;41132;47.162;9.470;2023-07-29T02:01:50;96220.53;;;17.64;100.00
55271;BME280;41132;47.162;9.470;2023-07-29T02:04:15;96225.25;;;17.56;100.00
55271;BME280;41132;47.162;9.470;2023-07-29T02:06:40;96219.72;;;17.57;100.00
55271;BME280;41132;47.162;9.470;2023-07-29T02:09:06;96220.75;;;17.56;100.00
55271;BME280;41132;47.162;9.470;2023-07-29T02:11:31;96213.19;;;17.53;100.00
55271;BME280;41132;47.162;9.470;2023-07-29T02:13:57;96207.50;;;17.49;100.00
55271;BME280;41132;47.162;9.470;2023-07-29T02:16:22;96212.16;;;17.61;100.00
55271;BME280;41132;47.162;9.470;2023-07-29T02:18:48;96213.78;;;17.55;100.00
55271;BME280;41132;47.162;9.470;2023-07-29T02:21:15;96220.34;;;17.52;100.00
55271;BME280;41132;47.162;9.470;2023-07-29T02:23:40;96209.34;;;17.49;100.00
55271;BME280;41132;47.162;9.470;2023-07-29T02:26:05;96209.09;;;17.50;100.00
55271;BME280;41132;47.162;9.470;2023-07-29T02:28:31;96213.00;;;17.48;100.00
55271;BME280;41132;47.162;9.470;2023-07-29T02:33:36;96183.22;;;17.39;100.00
55271;BME280;41132;47.162;9.470;2023-07-29T02:36:01;96182.00;;;17.35;100.00
55271;BME280;41132;47.162;9.470;2023-07-29T02:38:26;96187.72;;;17.39;100.00
55271;BME280;41132;47.162;9.470;2023-07-29T02:40:52;96176.28;;;17.38;100.00
55271;BME280;41132;47.162;9.470;2023-07-29T02:43:17;96178.94;;;17.38;100.00
55271;BME280;41132;47.162;9.470;2023-07-29T02:45:42;96179.56;;;17.33;100.00
55271;BME280;41132;47.162;9.470;2023-07-29T02:48:08;96179.13;;;17.37;100.00
55271;BME280;41132;47.162;9.470;2023-07-29T02:50:34;96170.78;;;17.33;100.00
55271;BME280;41132;47.162;9.470;2023-07-29T02:52:59;96167.31;;;17.32;100.00
55271;BME280;41132;47.162;9.470;2023-07-29T02:55:26;96173.63;;;17.31;100.00
55271;BME280;41132;47.162;9.470;2023-07-29T02:57:52;96168.53;;;17.23;100.00
55271;BME280;41132;47.162;9.470;2023-07-29T03:00:17;96172.84;;;17.24;100.00
55271;BME280;41132;47.162;9.470;2023-07-29T03:02:42;96162.22;;;17.11;100.00
55271;BME280;41132;47.162;9.470;2023-07-29T03:05:08;96183.44;;;17.18;100.00
55271;BME280;41132;47.162;9.470;2023-07-29T03:07:33;96192.22;;;17.25;100.00
55271;BME280;41132;47.162;9.470;2023-07-29T03:09:59;96193.44;;;17.29;100.00
55271;BME280;41132;47.162;9.470;2023-07-29T03:12:24;96175.69;;;17.29;100.00
55271;BME280;41132;47.162;9.470;2023-07-29T03:14:50;96156.72;;;17.19;100.00
55271;BME280;41132;47.162;9.470;2023-07-29T03:17:15;96168.53;;;17.37;100.00
55271;BME280;41132;47.162;9.470;2023-07-29T03:19:41;96184.88;;;17.33;100.00
55271;BME280;41132;47.162;9.470;2023-07-29T03:22:06;96176.72;;;17.28;100.00
55271;BME280;41132;47.162;9.470;2023-07-29T03:24:32;96184.88;;;17.33;100.00
55271;BME280;41132;47.162;9.470;2023-07-29T03:26:58;96186.91;;;17.31;100.00
55271;BME280;41132;47.162;9.470;2023-07-29T03:29:23;96183.81;;;17.35;100.00
55271;BME280;41132;47.162;9.470;2023-07-29T03:31:48;96184.66;;;17.35;100.00
55271;BME280;41132;47.162;9.470;2023-07-29T03:34:14;96174.69;;;17.30;100.00
55271;BME280;41132;47.162;9.470;2023-07-29T03:36:39;96178.94;;;17.31;100.00
55271;BME280;41132;47.162;9.470;2023-07-29T03:39:04;96185.25;;;17.37;100.00
55271;BME280;41132;47.162;9.470;2023-07-29T03:41:30;96184.06;;;17.33;100.00
55271;BME280;41132;47.162;9.470;2023-07-29T03:43:55;96179.13;;;17.37;100.00
55271;BME280;41132;47.162;9.470;2023-07-29T03:46:20;96189.94;;;17.48;100.00
55271;BME280;41132;47.162;9.470;2023-07-29T03:48:47;96204.59;;;17.58;100.00
55271;BME280;41132;47.162;9.470;2023-07-29T03:51:13;96203.78;;;17.57;100.00
55271;BME280;41132;47.162;9.470;2023-07-29T03:53:38;96201.56;;;17.54;100.00
55271;BME280;41132;47.162;9.470;2023-07-29T03:56:04;96207.31;;;17.51;100.00
55271;BME280;41132;47.162;9.470;2023-07-29T03:58:29;96196.28;;;17.41;100.00
55271;BME280;41132;47.162;9.470;2023-07-29T04:00:54;96208.50;;;17.55;100.00
55271;BME280;41132;47.162;9.470;2023-07-29T04:03:20;96207.50;;;17.56;100.00
55271;BME280;41132;47.162;9.470;2023-07-29T04:05:45;96193.78;;;17.59;100.00
55271;BME280;41132;47.162;9.470;2023-07-29T04:08:10;96196.66;;;17.58;100.00
55271;BME280;41132;47.162;9.470;2023-07-29T04:10:36;96180.78;;;17.44;100.00
55271;BME280;41132;47.162;9.470;2023-07-29T04:13:03;96187.50;;;17.53;100.00
55271;BME280;41132;47.162;9.470;2023-07-29T04:15:28;96184.41;;;17.57;100.00
55271;BME280;41132;47.162;9.470;2023-07-29T04:17:54;96181.59;;;17.45;100.00
55271;BME280;41132;47.162;9.470;2023-07-29T04:20:20;96186.28;;;17.49;100.00
55271;BME280;41132;47.162;9.470;2023-07-29T04:22:45;96204.66;;;17.51;100.00
55271;BME280;41132;47.162;9.470;2023-07-29T04:25:11;96220.31;;;17.59;100.00
55271;BME280;41132;47.162;9.470;2023-07-29T04:27:37;96216.25;;;17.50;100.00
55271;BME280;41132;47.162;9.470;2023-07-29T04:30:02;96244.00;;;17.61;100.00
55271;BME280;41132;47.162;9.470;2023-07-29T04:32:28;96252.97;;;17.60;100.00
55271;BME280;41132;47.162;9.470;2023-07-29T04:34:53;96247.66;;;17.60;100.00
55271;BME280;41132;47.162;9.470;2023-07-29T04:37:18;96250.13;;;17.48;100.00
55271;BME280;41132;47.162;9.470;2023-07-29T04:39:44;96276.66;;;17.61;100.00
55271;BME280;41132;47.162;9.470;2023-07-29T04:42:10;96259.75;;;17.49;100.00
55271;BME280;41132;47.162;9.470;2023-07-29T04:44:35;96256.06;;;17.50;100.00
55271;BME280;41132;47.162;9.470;2023-07-29T04:47:00;96265.66;;;17.51;100.00
55271;BME280;41132;47.162;9.470;2023-07-29T04:49:26;96254.81;;;17.52;100.00
55271;BME280;41132;47.162;9.470;2023-07-29T04:51:51;96265.25;;;17.61;100.00
55271;BME280;41132;47.162;9.470;2023-07-29T04:54:16;96258.28;;;17.53;100.00
55271;BME280;41132;47.162;9.470;2023-07-29T04:56:42;96241.97;;;17.56;100.00
55271;BME280;41132;47.162;9.470;2023-07-29T04:59:07;96242.38;;;17.60;100.00
55271;BME280;41132;47.162;9.470;2023-07-29T05:01:33;96222.97;;;17.59;100.00
55271;BME280;41132;47.162;9.470;2023-07-29T05:03:59;96210.75;;;17.58;100.00
55271;BME280;41132;47.162;9.470;2023-07-29T05:06:24;96210.53;;;17.53;100.00
55271;BME280;41132;47.162;9.470;2023-07-29T05:08:49;96221.34;;;17.65;100.00
55271;BME280;41132;47.162;9.470;2023-07-29T05:11:15;96198.91;;;17.61;100.00
55271;BME280;41132;47.162;9.470;2023-07-29T05:13:40;96174.84;;;17.56;100.00
55271;BME280;41132;47.162;9.470;2023-07-29T05:16:05;96203.59;;;17.65;100.00
55271;BME280;41132;47.162;9.470;2023-07-29T05:18:31;96210.13;;;17.83;100.00
55271;BME280;41132;47.162;9.470;2023-07-29T05:20:56;96206.84;;;17.74;100.00
55271;BME280;41132;47.162;9.470;2023-07-29T05:23:21;96183.78;;;17.68;100.00
55271;BME280;41132;47.162;9.470;2023-07-29T05:25:47;96206.22;;;17.85;100.00
55271;BME280;41132;47.162;9.470;2023-07-29T05:28:12;96201.91;;;17.91;100.00
55271;BME280;41132;47.162;9.470;2023-07-29T05:30:37;96212.09;;;18.01;100.00
55271;BME280;41132;47.162;9.470;2023-07-29T05:33:05;96228.44;;;17.98;100.00
55271;BME280;41132;47.162;9.470;2023-07-29T05:35:32;96223.31;;;18.03;100.00
55271;BME280;41132;47.162;9.470;2023-07-29T05:37:58;96227.16;;;18.13;100.00
55271;BME280;41132;47.162;9.470;2023-07-29T05:40:23;96216.09;;;18.23;100.00
55271;BME280;41132;47.162;9.470;2023-07-29T05:42:49;96223.63;;;18.33;100.00
55271;BME280;41132;47.162;9.470;2023-07-29T05:45:14;96212.16;;;18.32;100.00
55271;BME280;41132;47.162;9.470;2023-07-29T05:47:40;96200.28;;;18.42;100.00
55271;BME280;41132;47.162;9.470;2023-07-29T05:50:05;96206.94;;;18.57;100.00
55271;BME280;41132;47.162;9.470;2023-07-29T05:52:31;96217.16;;;18.61;100.00
55271;BME280;41132;47.162;9.470;2023-07-29T05:54:57;96202.66;;;18.56;100.00
55271;BME280;41132;47.162;9.470;2023-07-29T05:57:22;96217.25;;;18.86;100.00
55271;BME280;41132;47.162;9.470;2023-07-29T05:59:48;96221.59;;;19.05;100.00
55271;BME280;41132;47.162;9.470;2023-07-29T06:02:13;96221.53;;;19.12;100.00
55271;BME280;41132;47.162;9.470;2023-07-29T06:04:38;96217.81;;;18.94;100.00
55271;BME280;41132;47.162;9.470;2023-07-29T06:07:04;96220.94;;;19.10;100.00
55271;BME280;41132;47.162;9.470;2023-07-29T06:09:30;96228.47;;;19.19;100.00
55271;BME280;41132;47.162;9.470;2023-07-29T06:11:55;96238.63;;;19.29;100.00
55271;BME280;41132;47.162;9.470;2023-07-29T06:14:21;96229.44;;;19.25;100.00
55271;BME280;41132;47.162;9.470;2023-07-29T06:16:46;96236.16;;;19.28;100.00
55271;BME280;41132;47.162;9.470;2023-07-29T06:19:12;96228.50;;;19.13;100.00
55271;BME280;41132;47.162;9.470;2023-07-29T06:21:38;96239.88;;;19.27;100.00
55271;BME280;41132;47.162;9.470;2023-07-29T06:24:04;96232.28;;;19.30;100.00
55271;BME280;41132;47.162;9.470;2023-07-29T06:26:29;96240.84;;;19.32;100.00
55271;BME280;41132;47.162;9.470;2023-07-29T06:28:54;96215.91;;;19.27;100.00
55271;BME280;41132;47.162;9.470;2023-07-29T06:31:20;96232.09;;;19.50;100.00
55271;BME280;41132;47.162;9.470;2023-07-29T06:33:45;96237.41;;;19.75;100.00
55271;BME280;41132;47.162;9.470;2023-07-29T06:36:11;96241.78;;;19.70;100.00
55271;BME280;41132;47.162;9.470;2023-07-29T06:38:37;96250.97;;;19.74;100.00
55271;BME280;41132;47.162;9.470;2023-07-29T06:41:04;96256.78;;;19.57;100.00
55271;BME280;41132;47.162;9.470;2023-07-29T06:43:29;96257.69;;;19.51;100.00
55271;BME280;41132;47.162;9.470;2023-07-29T06:45:55;96265.16;;;19.61;100.00
55271;BME280;41132;47.162;9.470;2023-07-29T06:48:20;96266.31;;;19.47;100.00
55271;BME280;41132;47.162;9.470;2023-07-29T06:50:46;96269.13;;;19.52;100.00
55271;BME280;41132;47.162;9.470;2023-07-29T06:53:11;96249.25;;;19.54;100.00
55271;BME280;41132;47.162;9.470;2023-07-29T06:55:37;96255.13;;;19.63;100.00
55271;BME280;41132;47.162;9.470;2023-07-29T06:58:02;96244.47;;;19.88;100.00
55271;BME280;41132;47.162;9.470;2023-07-29T07:00:28;96270.22;;;19.94;100.00
55271;BME280;41132;47.162;9.470;2023-07-29T07:02:53;96250.19;;;19.92;100.00
55271;BME280;41132;47.162;9.470;2023-07-29T07:05:19;96265.78;;;19.88;100.00
55271;BME280;41132;47.162;9.470;2023-07-29T07:07:44;96265.19;;;20.05;100.00
55271;BME280;41132;47.162;9.470;2023-07-29T07:10:10;96260.25;;;20.08;100.00
55271;BME280;41132;47.162;9.470;2023-07-29T07:12:35;96281.50;;;20.33;100.00
55271;BME280;41132;47.162;9.470;2023-07-29T07:15:01;96274.97;;;20.48;100.00
55271;BME280;41132;47.162;9.470;2023-07-29T07:17:26;96262.19;;;20.56;100.00
55271;BME280;41132;47.162;9.470;2023-07-29T07:19:51;96283.81;;;20.67;100.00
55271;BME280;41132;47.162;9.470;2023-07-29T07:22:17;96277.50;;;20.91;100.00
55271;BME280;41132;47.162;9.470;2023-07-29T07:24:42;96276.09;;;21.19;100.00
55271;BME280;41132;47.162;9.470;2023-07-29T07:27:07;96266.00;;;22.22;100.00
55271;BME280;41132;47.162;9.470;2023-07-29T07:29:33;96268.97;;;23.52;100.00
55271;BME280;41132;47.162;9.470;2023-07-29T07:31:58;96268.47;;;23.38;100.00
55271;BME280;41132;47.162;9.470;2023-07-29T07:34:24;96260.75;;;23.08;100.00
55271;BME280;41132;47.162;9.470;2023-07-29T07:36:49;96273.66;;;22.70;94.61
55271;BME280;41132;47.162;9.470;2023-07-29T07:39:15;96265.88;;;22.28;100.00
55271;BME280;41132;47.162;9.470;2023-07-29T07:41:41;96253.44;;;21.75;98.88
55271;BME280;41132;47.162;9.470;2023-07-29T07:44:07;96262.16;;;21.71;100.00
55271;BME280;41132;47.162;9.470;2023-07-29T07:46:32;96260.28;;;21.59;100.00
55271;BME280;41132;47.162;9.470;2023-07-29T07:48:58;96252.53;;;21.58;100.00
55271;BME280;41132;47.162;9.470;2023-07-29T07:51:23;96241.66;;;21.29;100.00
55271;BME280;41132;47.162;9.470;2023-07-29T07:53:49;96252.03;;;21.07;100.00
55271;BME280;41132;47.162;9.470;2023-07-29T07:56:14;96246.75;;;21.19;100.00
55271;BME280;41132;47.162;9.470;2023-07-29T07:58:40;96246.84;;;21.12;100.00
55271;BME280;41132;47.162;9.470;2023-07-29T08:01:06;96241.25;;;21.14;100.00
55271;BME280;41132;47.162;9.470;2023-07-29T08:03:33;96240.50;;;21.37;100.00
55271;BME280;41132;47.162;9.470;2023-07-29T08:05:58;96229.13;;;21.30;100.00
55271;BME280;41132;47.162;9.470;2023-07-29T08:08:25;96216.25;;;21.38;100.00
55271;BME280;41132;47.162;9.470;2023-07-29T08:10:52;96229.19;;;23.10;100.00
55271;BME280;41132;47.162;9.470;2023-07-29T08:13:18;96223.47;;;23.35;100.00
55271;BME280;41132;47.162;9.470;2023-07-29T08:15:49;96228.47;;;23.31;91.63
55271;BME280;41132;47.162;9.470;2023-07-29T08:18:15;96218.84;;;23.30;93.40
55271;BME280;41132;47.162;9.470;2023-07-29T08:20:41;96205.69;;;23.12;100.00
55271;BME280;41132;47.162;9.470;2023-07-29T08:23:07;96225.47;;;23.11;100.00
55271;BME280;41132;47.162;9.470;2023-07-29T08:25:32;96223.94;;;23.49;100.00
55271;BME280;41132;47.162;9.470;2023-07-29T08:27:57;96220.06;;;24.56;100.00
55271;BME280;41132;47.162;9.470;2023-07-29T08:30:23;96215.09;;;25.19;90.29
55271;BME280;41132;47.162;9.470;2023-07-29T08:32:48;96223.06;;;25.41;90.69
55271;BME280;41132;47.162;9.470;2023-07-29T08:35:13;96210.63;;;24.76;79.99
55271;BME280;41132;47.162;9.470;2023-07-29T08:37:39;96217.09;;;24.53;90.06
55271;BME280;41132;47.162;9.470;2023-07-29T08:40:05;96222.59;;;24.24;89.14
55271;BME280;41132;47.162;9.470;2023-07-29T08:42:31;96207.34;;;23.86;90.37
55271;BME280;41132;47.162;9.470;2023-07-29T08:45:01;96208.09;;;23.81;91.49
55271;BME280;41132;47.162;9.470;2023-07-29T08:47:31;96212.16;;;23.50;87.19
55271;BME280;41132;47.162;9.470;2023-07-29T08:49:58;96211.69;;;23.19;88.26
55271;BME280;41132;47.162;9.470;2023-07-29T08:52:25;96203.97;;;23.23;89.79
55271;BME280;41132;47.162;9.470;2023-07-29T08:54:51;96214.69;;;23.40;90.87
55271;BME280;41132;47.162;9.470;2023-07-29T08:57:18;96214.59;;;23.51;98.01
55271;BME280;41132;47.162;9.470;2023-07-29T08:59:45;96210.97;;;23.58;100.00
55271;BME280;41132;47.162;9.470;2023-07-29T09:02:11;96207.69;;;23.39;95.37
55271;BME280;41132;47.162;9.470;2023-07-29T09:04:36;96208.75;;;23.21;87.91
55271;BME280;41132;47.162;9.470;2023-07-29T09:07:02;96212.09;;;23.28;88.16
55271;BME280;41132;47.162;9.470;2023-07-29T09:09:28;96201.84;;;23.59;92.17
55271;BME280;41132;47.162;9.470;2023-07-29T09:11:53;96206.47;;;23.63;87.75
55271;BME280;41132;47.162;9.470;2023-07-29T09:14:19;96202.63;;;23.93;88.13
55271;BME280;41132;47.162;9.470;2023-07-29T09:16:45;96194.31;;;24.55;91.61
55271;BME280;41132;47.162;9.470;2023-07-29T09:19:11;96191.63;;;24.33;80.57
55271;BME280;41132;47.162;9.470;2023-07-29T09:21:40;96193.41;;;24.99;90.77
55271;BME280;41132;47.162;9.470;2023-07-29T09:24:07;96181.91;;;25.36;84.70
55271;BME280;41132;47.162;9.470;2023-07-29T09:26:33;96178.88;;;25.27;73.93
55271;BME280;41132;47.162;9.470;2023-07-29T09:28:59;96181.94;;;25.41;74.98
55271;BME280;41132;47.162;9.470;2023-07-29T09:31:26;96185.53;;;25.57;72.56
55271;BME280;41132;47.162;9.470;2023-07-29T09:34:02;96178.34;;;26.05;73.90
55271;BME280;41132;47.162;9.470;2023-07-29T09:36:30;96192.22;;;26.44;79.44
55271;BME280;41132;47.162;9.470;2023-07-29T09:38:57;96186.31;;;26.53;76.10
55271;BME280;41132;47.162;9.470;2023-07-29T09:41:26;96184.63;;;26.26;76.32
55271;BME280;41132;47.162;9.470;2023-07-29T09:43:57;96185.66;;;25.72;79.63
55271;BME280;41132;47.162;9.470;2023-07-29T09:46:24;96177.69;;;25.45;77.92
55271;BME280;41132;47.162;9.470;2023-07-29T09:48:53;96190.75;;;25.31;82.56
55271;BME280;41132;47.162;9.470;2023-07-29T09:51:19;96181.78;;;25.20;83.48
55271;BME280;41132;47.162;9.470;2023-07-29T09:53:46;96179.94;;;25.21;87.78
55271;BME280;41132;47.162;9.470;2023-07-29T09:56:13;96182.53;;;25.16;85.99
55271;BME280;41132;47.162;9.470;2023-07-29T09:58:39;96190.91;;;25.19;88.92
55271;BME280;41132;47.162;9.470;2023-07-29T10:01:06;96180.69;;;25.16;90.17
55271;BME280;41132;47.162;9.470;2023-07-29T10:03:31;96185.31;;;24.94;80.28
55271;BME280;41132;47.162;9.470;2023-07-29T10:06:00;96161.16;;;24.94;78.98
55271;BME280;41132;47.162;9.470;2023-07-29T10:08:27;96162.78;;;26.12;83.73
55271;BME280;41132;47.162;9.470;2023-07-29T10:10:54;96168.41;;;27.15;78.86
55271;BME280;41132;47.162;9.470;2023-07-29T10:13:20;96154.88;;;27.66;74.10
55271;BME280;41132;47.162;9.470;2023-07-29T10:15:46;96153.34;;;28.35;71.23
55271;BME280;41132;47.162;9.470;2023-07-29T10:18:12;96150.44;;;28.76;65.50
55271;BME280;41132;47.162;9.470;2023-07-29T10:20:38;96152.31;;;28.26;58.54
55271;BME280;41132;47.162;9.470;2023-07-29T10:23:07;96145.09;;;28.66;61.30
55271;BME280;41132;47.162;9.470;2023-07-29T10:25:44;96142.72;;;29.33;64.24
55271;BME280;41132;47.162;9.470;2023-07-29T10:28:12;96143.06;;;29.85;62.14
55271;BME280;41132;47.162;9.470;2023-07-29T10:30:38;96149.84;;;29.53;64.41
55271;BME280;41132;47.162;9.470;2023-07-29T10:33:04;96139.88;;;29.19;60.57
55271;BME280;41132;47.162;9.470;2023-07-29T10:35:34;96140.41;;;29.80;67.89
55271;BME280;41132;47.162;9.470;2023-07-29T10:38:01;96135.41;;;29.92;63.95
55271;BME280;41132;47.162;9.470;2023-07-29T10:40:43;96135.41;;;30.16;61.87
55271;BME280;41132;47.162;9.470;2023-07-29T10:43:11;96148.06;;;30.21;59.29
55271;BME280;41132;47.162;9.470;2023-07-29T10:45:38;96146.06;;;30.07;60.44
55271;BME280;41132;47.162;9.470;2023-07-29T10:48:10;96140.03;;;29.62;58.87
55271;BME280;41132;47.162;9.470;2023-07-29T10:50:36;96131.19;;;29.22;60.45
55271;BME280;41132;47.162;9.470;2023-07-29T10:53:02;96136.22;;;29.00;65.93
55271;BME280;41132;47.162;9.470;2023-07-29T10:55:35;96128.50;;;28.43;64.86
55271;BME280;41132;47.162;9.470;2023-07-29T10:58:10;96128.78;;;27.66;72.21
55271;BME280;41132;47.162;9.470;2023-07-29T11:00:36;96132.84;;;27.18;73.24
55271;BME280;41132;47.162;9.470;2023-07-29T11:03:05;96122.06;;;26.66;74.38
55271;BME280;41132;47.162;9.470;2023-07-29T11:05:43;96127.09;;;26.32;78.36
55271;BME280;41132;47.162;9.470;2023-07-29T11:08:30;96127.47;;;25.93;76.00
55271;BME280;41132;47.162;9.470;2023-07-29T11:11:03;96132.31;;;25.49;80.25
55271;BME280;41132;47.162;9.470;2023-07-29T11:13:34;96132.47;;;25.32;83.36
55271;BME280;41132;47.162;9.470;2023-07-29T11:16:00;96138.28;;;25.18;89.62
55271;BME280;41132;47.162;9.470;2023-07-29T11:18:27;96148.59;;;25.05;95.33
55271;BME280;41132;47.162;9.470;2023-07-29T11:20:54;96135.31;;;24.88;99.32
55271;BME280;41132;47.162;9.470;2023-07-29T11:23:20;96130.38;;;24.74;95.01
55271;BME280;41132;47.162;9.470;2023-07-29T11:25:45;96113.16;;;24.70;100.00
55271;BME280;41132;47.162;9.470;2023-07-29T11:28:11;96121.53;;;24.74;98.29
55271;BME280;41132;47.162;9.470;2023-07-29T11:30:39;96108.25;;;24.89;100.00
55271;BME280;41132;47.162;9.470;2023-07-29T11:33:04;96097.56;;;24.99;99.65
55271;BME280;41132;47.162;9.470;2023-07-29T11:35:32;96089.75;;;24.98;99.53
55271;BME280;41132;47.162;9.470;2023-07-29T11:37:57;96088.59;;;24.84;96.62
55271;BME280;41132;47.162;9.470;2023-07-29T11:40:23;96074.38;;;24.83;91.86
55271;BME280;41132;47.162;9.470;2023-07-29T11:42:50;96073.56;;;24.83;88.49
55271;BME280;41132;47.162;9.470;2023-07-29T11:45:16;96073.19;;;24.69;85.99
55271;BME280;41132;47.162;9.470;2023-07-29T11:47:42;96077.84;;;24.51;84.79
55271;BME280;41132;47.162;9.470;2023-07-29T11:50:10;96082.22;;;24.57;88.92
55271;BME280;41132;47.162;9.470;2023-07-29T11:52:36;96085.66;;;24.53;76.97
55271;BME280;41132;47.162;9.470;2023-07-29T11:55:04;96080.31;;;24.58;78.96
55271;BME280;41132;47.162;9.470;2023-07-29T11:57:31;96064.78;;;24.60;84.18
55271;BME280;41132;47.162;9.470;2023-07-29T11:59:57;96061.16;;;24.76;81.37
55271;BME280;41132;47.162;9.470;2023-07-29T12:02:23;96051.53;;;24.80;79.22
55271;BME280;41132;47.162;9.470;2023-07-29T12:04:50;96050.78;;;24.85;79.73
55271;BME280;41132;47.162;9.470;2023-07-29T12:07:17;96049.47;;;24.93;75.07
55271;BME280;41132;47.162;9.470;2023-07-29T12:09:43;96039.44;;;24.78;71.01
55271;BME280;41132;47.162;9.470;2023-07-29T12:12:09;96021.47;;;24.78;77.33
55271;BME280;41132;47.162;9.470;2023-07-29T12:14:35;96033.91;;;24.95;81.27
55271;BME280;41132;47.162;9.470;2023-07-29T12:17:02;96034.91;;;24.84;81.04
55271;BME280;41132;47.162;9.470;2023-07-29T12:19:35;96030.25;;;24.69;75.18
55271;BME280;41132;47.162;9.470;2023-07-29T12:22:05;96048.38;;;24.56;84.41
55271;BME280;41132;47.162;9.470;2023-07-29T12:24:32;96058.13;;;24.41;78.54
55271;BME280;41132;47.162;9.470;2023-07-29T12:26:58;96055.00;;;24.22;83.45
55271;BME280;41132;47.162;9.470;2023-07-29T12:29:24;96059.06;;;24.24;83.28
55271;BME280;41132;47.162;9.470;2023-07-29T12:32:00;96054.78;;;24.23;89.78
55271;BME280;41132;47.162;9.470;2023-07-29T12:34:27;96044.13;;;24.06;80.67
55271;BME280;41132;47.162;9.470;2023-07-29T12:36:57;96013.91;;;23.89;83.66
55271;BME280;41132;47.162;9.470;2023-07-29T12:39:28;96031.16;;;23.98;92.78
55271;BME280;41132;47.162;9.470;2023-07-29T12:41:55;96052.94;;;23.80;85.14
55271;BME280;41132;47.162;9.470;2023-07-29T12:44:22;96039.16;;;23.71;88.31
55271;BME280;41132;47.162;9.470;2023-07-29T12:46:48;96055.91;;;23.61;86.92
55271;BME280;41132;47.162;9.470;2023-07-29T12:49:13;96133.47;;;23.51;98.03
55271;BME280;41132;47.162;9.470;2023-07-29T12:51:39;96246.97;;;23.50;97.55
55271;BME280;41132;47.162;9.470;2023-07-29T12:54:04;96325.13;;;21.90;100.00
55271;BME280;41132;47.162;9.470;2023-07-29T12:56:31;96367.06;;;20.00;100.00
55271;BME280;41132;47.162;9.470;2023-07-29T12:58:57;96311.50;;;19.28;100.00